This is the latest recevied weather packets stored in our database for station/object EA1ZE. If no packets are shown the sender has not sent any weather packets the latest 10 day(s).
| Time | Temp. | Humidity | Pressure | Rain* | Wind** | Luminosity | Snow |
|---|---|---|---|---|---|---|---|
| 1778104805 | 11.11° C | 74% | 1011.8 hPa | 0 mm | - | - | - |
| 1778103904 | 11.67° C | 72% | 1011.8 hPa | 0 mm | - | - | - |
| 1778103003 | 11.67° C | 70% | 1011.8 hPa | 0 mm | - | - | - |
| 1778102102 | 12.22° C | 68% | 1011.9 hPa | 0 mm | - | - | - |
| 1778101202 | 12.22° C | 64% | 1012 hPa | 0 mm | - | - | - |
| 1778100302 | 12.22° C | 61% | 1011.9 hPa | 0 mm | - | - | - |
| 1778099401 | 12.78° C | 60% | 1011.7 hPa | 0 mm | - | - | - |
| 1778098502 | 13.33° C | 58% | 1011.7 hPa | 0 mm | - | - | - |
| 1778097673 | 13.89° C | 57% | 1011.6 hPa | 0 mm | - | - | - |
| 1778096782 | 14.44° C | 56% | 1011.5 hPa | 0 mm | - | - | - |
| 1778095860 | 15° C | 52% | 1011.4 hPa | 0 mm | - | - | - |
| 1778094959 | 15.56° C | 46% | 1011.3 hPa | 0 mm | - | - | - |
| 1778094060 | 16.11° C | 41% | 1011.3 hPa | 0 mm | - | - | - |
| 1778093170 | 16.11° C | 40% | 1011.3 hPa | 0 mm | - | - | - |
| 1778092264 | 16.67° C | 39% | 1011.2 hPa | 0 mm | - | - | - |
| 1778091360 | 17.22° C | 39% | 1011.3 hPa | 0 mm | - | - | - |
| 1778090455 | 17.22° C | 39% | 1011.4 hPa | 0 mm | - | - | - |
| 1778089554 | 17.22° C | 39% | 1011.5 hPa | 0 mm | - | - | - |
| 1778088656 | 16.67° C | 42% | 1011.6 hPa | 0 mm | - | - | - |
| 1778087751 | 16.11° C | 43% | 1011.8 hPa | 0 mm | - | - | - |
| 1778086850 | 16.11° C | 44% | 1011.8 hPa | 0 mm | - | - | - |
| 1778085953 | 16.11° C | 44% | 1011.8 hPa | 0 mm | - | - | - |
| 1778085052 | 16.11° C | 43% | 1011.9 hPa | 0 mm | - | - | - |
| 1778084157 | 16.67° C | 44% | 1012 hPa | 0 mm | - | - | - |
| 1778083248 | 16.67° C | 43% | 1012 hPa | 0 mm | - | - | - |
* Rain latest hour (hover to see other rain measurements)
** Current wind speed in m/s (hover to see current wind gust speed)